sensor_id;sensor_type;location;lat;lon;timestamp;pressure;altitude;pressure_sealevel;temperature;humidity
58373;BME280;44177;43.356;27.672;2022-10-17T00:01:50;99471.13;;;16.46;46.93
58373;BME280;44177;43.356;27.672;2022-10-17T00:04:15;99462.31;;;16.40;46.99
58373;BME280;44177;43.356;27.672;2022-10-17T00:06:41;99467.56;;;16.46;47.36
58373;BME280;44177;43.356;27.672;2022-10-17T00:09:06;99473.06;;;16.46;47.35
58373;BME280;44177;43.356;27.672;2022-10-17T00:11:32;99469.16;;;16.47;47.19
58373;BME280;44177;43.356;27.672;2022-10-17T00:13:57;99468.38;;;16.46;47.19
58373;BME280;44177;43.356;27.672;2022-10-17T00:16:31;99473.88;;;16.46;47.16
58373;BME280;44177;43.356;27.672;2022-10-17T00:18:58;99469.53;;;16.45;47.29
58373;BME280;44177;43.356;27.672;2022-10-17T00:21:25;99463.56;;;16.43;47.44
58373;BME280;44177;43.356;27.672;2022-10-17T00:23:52;99463.56;;;16.43;46.98
58373;BME280;44177;43.356;27.672;2022-10-17T00:26:18;99463.56;;;16.43;47.03
58373;BME280;44177;43.356;27.672;2022-10-17T00:28:49;99458.41;;;16.41;47.29
58373;BME280;44177;43.356;27.672;2022-10-17T00:31:17;99455.66;;;16.41;47.26
58373;BME280;44177;43.356;27.672;2022-10-17T00:33:43;99461.16;;;16.41;47.17
58373;BME280;44177;43.356;27.672;2022-10-17T00:36:18;99464.72;;;16.42;47.32
58373;BME280;44177;43.356;27.672;2022-10-17T00:38:46;99464.72;;;16.42;46.93
58373;BME280;44177;43.356;27.672;2022-10-17T00:41:14;99472.19;;;16.41;47.01
58373;BME280;44177;43.356;27.672;2022-10-17T00:46:37;99461.16;;;16.41;47.35
58373;BME280;44177;43.356;27.672;2022-10-17T00:49:06;99467.84;;;16.40;47.33
58373;BME280;44177;43.356;27.672;2022-10-17T00:51:37;99454.34;;;16.35;47.31
58373;BME280;44177;43.356;27.672;2022-10-17T00:54:05;99467.03;;;16.40;46.99
58373;BME280;44177;43.356;27.672;2022-10-17T00:56:33;99462.69;;;16.39;47.09
58373;BME280;44177;43.356;27.672;2022-10-17T00:58:59;99474.16;;;16.41;46.95
58373;BME280;44177;43.356;27.672;2022-10-17T01:01:24;99478.84;;;16.40;47.01
58373;BME280;44177;43.356;27.672;2022-10-17T01:03:50;99472.19;;;16.41;47.08
58373;BME280;44177;43.356;27.672;2022-10-17T01:06:15;99466.69;;;16.41;47.03
58373;BME280;44177;43.356;27.672;2022-10-17T01:08:41;99472.19;;;16.41;47.25
58373;BME280;44177;43.356;27.672;2022-10-17T01:11:38;99473.34;;;16.40;46.92
58373;BME280;44177;43.356;27.672;2022-10-17T01:16:45;99481.16;;;16.38;47.20
58373;BME280;44177;43.356;27.672;2022-10-17T01:22:20;99477.25;;;16.39;47.32
58373;BME280;44177;43.356;27.672;2022-10-17T01:27:46;99468.56;;;16.37;47.30
58373;BME280;44177;43.356;27.672;2022-10-17T01:33:13;99449.97;;;16.34;46.99
58373;BME280;44177;43.356;27.672;2022-10-17T01:38:53;99473.63;;;16.35;47.05
58373;BME280;44177;43.356;27.672;2022-10-17T01:41:41;99463.38;;;16.36;47.18
58373;BME280;44177;43.356;27.672;2022-10-17T01:46:39;99465.34;;;16.35;46.92
58373;BME280;44177;43.356;27.672;2022-10-17T01:49:07;99457.34;;;16.30;46.85
58373;BME280;44177;43.356;27.672;2022-10-17T01:51:46;99471.31;;;16.37;46.93
58373;BME280;44177;43.356;27.672;2022-10-17T01:54:18;99475.22;;;16.36;46.89
58373;BME280;44177;43.356;27.672;2022-10-17T01:56:47;99468.56;;;16.37;47.07
58373;BME280;44177;43.356;27.672;2022-10-17T01:59:19;99475.22;;;16.36;47.09
58373;BME280;44177;43.356;27.672;2022-10-17T02:01:49;99481.88;;;16.35;47.10
58373;BME280;44177;43.356;27.672;2022-10-17T02:04:15;99485.09;;;16.37;46.93
58373;BME280;44177;43.356;27.672;2022-10-17T02:06:40;99488.97;;;16.36;46.94
58373;BME280;44177;43.356;27.672;2022-10-17T02:09:17;99495.28;;;16.37;46.76
58373;BME280;44177;43.356;27.672;2022-10-17T02:17:36;99512.16;;;16.35;46.94
58373;BME280;44177;43.356;27.672;2022-10-17T02:20:14;99511.34;;;16.35;46.77
58373;BME280;44177;43.356;27.672;2022-10-17T02:25:39;99509.66;;;16.30;47.08
58373;BME280;44177;43.356;27.672;2022-10-17T02:28:33;99521.56;;;16.34;46.75
58373;BME280;44177;43.356;27.672;2022-10-17T02:31:12;99527.09;;;16.34;46.94
58373;BME280;44177;43.356;27.672;2022-10-17T02:33:57;99533.38;;;16.35;46.84
58373;BME280;44177;43.356;27.672;2022-10-17T02:36:28;99530.97;;;16.33;46.78
58373;BME280;44177;43.356;27.672;2022-10-17T02:38:57;99532.59;;;16.34;46.78
58373;BME280;44177;43.356;27.672;2022-10-17T02:41:24;99531.78;;;16.34;46.76
58373;BME280;44177;43.356;27.672;2022-10-17T02:43:52;99534.09;;;16.32;46.89
58373;BME280;44177;43.356;27.672;2022-10-17T02:46:21;99536.50;;;16.33;46.86
58373;BME280;44177;43.356;27.672;2022-10-17T02:48:51;99532.94;;;16.33;47.18
58373;BME280;44177;43.356;27.672;2022-10-17T02:51:23;99530.97;;;16.33;46.83
58373;BME280;44177;43.356;27.672;2022-10-17T02:56:58;99542.34;;;16.32;46.79
58373;BME280;44177;43.356;27.672;2022-10-17T02:59:27;99537.63;;;16.32;46.89
58373;BME280;44177;43.356;27.672;2022-10-17T03:01:54;99542.00;;;16.33;47.03
58373;BME280;44177;43.356;27.672;2022-10-17T03:04:20;99537.63;;;16.32;47.03
58373;BME280;44177;43.356;27.672;2022-10-17T03:06:47;99543.97;;;16.33;46.78
58373;BME280;44177;43.356;27.672;2022-10-17T03:09:13;99543.97;;;16.33;47.06
58373;BME280;44177;43.356;27.672;2022-10-17T03:11:39;99527.78;;;16.31;46.80
58373;BME280;44177;43.356;27.672;2022-10-17T03:14:04;99525.84;;;16.32;46.98
58373;BME280;44177;43.356;27.672;2022-10-17T03:16:30;99523.09;;;16.32;46.64
58373;BME280;44177;43.356;27.672;2022-10-17T03:18:55;99536.50;;;16.33;46.68
58373;BME280;44177;43.356;27.672;2022-10-17T03:21:21;99545.13;;;16.32;47.05
58373;BME280;44177;43.356;27.672;2022-10-17T03:23:46;99545.91;;;16.32;47.11
58373;BME280;44177;43.356;27.672;2022-10-17T03:26:12;99553.38;;;16.32;46.71
58373;BME280;44177;43.356;27.672;2022-10-17T03:28:37;99545.13;;;16.32;46.68
58373;BME280;44177;43.356;27.672;2022-10-17T03:31:07;99547.06;;;16.31;46.86
58373;BME280;44177;43.356;27.672;2022-10-17T03:33:34;99547.06;;;16.31;47.17
58373;BME280;44177;43.356;27.672;2022-10-17T03:36:04;99547.88;;;16.32;46.88
58373;BME280;44177;43.356;27.672;2022-10-17T03:38:30;99558.06;;;16.31;46.79
58373;BME280;44177;43.356;27.672;2022-10-17T03:40:55;99569.06;;;16.31;46.92
58373;BME280;44177;43.356;27.672;2022-10-17T03:43:21;99566.31;;;16.31;46.77
58373;BME280;44177;43.356;27.672;2022-10-17T03:45:46;99565.53;;;16.31;47.04
58373;BME280;44177;43.356;27.672;2022-10-17T03:48:11;99565.53;;;16.31;46.66
58373;BME280;44177;43.356;27.672;2022-10-17T03:50:37;99574.16;;;16.29;46.64
58373;BME280;44177;43.356;27.672;2022-10-17T03:53:02;99567.03;;;16.28;47.03
58373;BME280;44177;43.356;27.672;2022-10-17T03:55:28;99568.66;;;16.29;46.94
58373;BME280;44177;43.356;27.672;2022-10-17T03:57:53;99573.69;;;16.27;46.87
58373;BME280;44177;43.356;27.672;2022-10-17T04:00:19;99576.44;;;16.27;46.68
58373;BME280;44177;43.356;27.672;2022-10-17T04:02:44;99576.44;;;16.27;46.98
58373;BME280;44177;43.356;27.672;2022-10-17T04:05:10;99584.34;;;16.29;46.72
58373;BME280;44177;43.356;27.672;2022-10-17T04:07:35;99572.56;;;16.28;46.80
58373;BME280;44177;43.356;27.672;2022-10-17T04:10:04;99574.50;;;16.27;47.06
58373;BME280;44177;43.356;27.672;2022-10-17T04:12:30;99575.31;;;16.28;46.72
58373;BME280;44177;43.356;27.672;2022-10-17T04:14:55;99574.16;;;16.29;46.67
58373;BME280;44177;43.356;27.672;2022-10-17T04:17:21;99572.88;;;16.26;46.65
58373;BME280;44177;43.356;27.672;2022-10-17T04:19:48;99567.03;;;16.28;46.74
58373;BME280;44177;43.356;27.672;2022-10-17T04:22:13;99565.06;;;16.29;46.81
58373;BME280;44177;43.356;27.672;2022-10-17T04:24:39;99567.03;;;16.28;46.79
58373;BME280;44177;43.356;27.672;2022-10-17T04:27:04;99570.94;;;16.27;46.85
58373;BME280;44177;43.356;27.672;2022-10-17T04:29:30;99571.72;;;16.27;46.66
58373;BME280;44177;43.356;27.672;2022-10-17T04:31:55;99570.94;;;16.27;46.86
58373;BME280;44177;43.356;27.672;2022-10-17T04:34:20;99572.56;;;16.28;46.67
58373;BME280;44177;43.356;27.672;2022-10-17T04:36:46;99575.63;;;16.26;46.64
58373;BME280;44177;43.356;27.672;2022-10-17T04:39:11;99571.72;;;16.27;46.67
58373;BME280;44177;43.356;27.672;2022-10-17T04:41:37;99570.13;;;16.26;46.66
58373;BME280;44177;43.356;27.672;2022-10-17T04:44:02;99561.09;;;16.26;46.56
58373;BME280;44177;43.356;27.672;2022-10-17T04:46:28;99570.13;;;16.26;46.54
58373;BME280;44177;43.356;27.672;2022-10-17T04:48:54;99572.88;;;16.26;46.86
58373;BME280;44177;43.356;27.672;2022-10-17T04:51:19;99574.84;;;16.26;46.84
58373;BME280;44177;43.356;27.672;2022-10-17T04:53:45;99581.50;;;16.25;46.83
58373;BME280;44177;43.356;27.672;2022-10-17T04:56:13;99581.75;;;16.20;46.81
58373;BME280;44177;43.356;27.672;2022-10-17T04:58:40;99591.72;;;16.24;46.60
58373;BME280;44177;43.356;27.672;2022-10-17T05:01:07;99591.16;;;16.19;46.97
58373;BME280;44177;43.356;27.672;2022-10-17T05:03:34;99609.41;;;16.23;46.96
58373;BME280;44177;43.356;27.672;2022-10-17T05:06:07;99616.50;;;16.24;46.63
58373;BME280;44177;43.356;27.672;2022-10-17T05:08:34;99614.91;;;16.23;46.69
58373;BME280;44177;43.356;27.672;2022-10-17T05:11:00;99626.69;;;16.24;46.92
58373;BME280;44177;43.356;27.672;2022-10-17T05:13:26;99622.00;;;16.24;46.68
58373;BME280;44177;43.356;27.672;2022-10-17T05:15:51;99622.00;;;16.24;46.95
58373;BME280;44177;43.356;27.672;2022-10-17T05:18:17;99625.56;;;16.25;46.63
58373;BME280;44177;43.356;27.672;2022-10-17T05:20:42;99625.09;;;16.23;46.96
58373;BME280;44177;43.356;27.672;2022-10-17T05:23:08;99631.41;;;16.23;46.90
58373;BME280;44177;43.356;27.672;2022-10-17T05:25:33;99629.00;;;16.22;46.86
58373;BME280;44177;43.356;27.672;2022-10-17T05:27:59;99640.00;;;16.22;46.70
58373;BME280;44177;43.356;27.672;2022-10-17T05:30:24;99641.63;;;16.23;46.67
58373;BME280;44177;43.356;27.672;2022-10-17T05:32:53;99646.34;;;16.22;47.10
58373;BME280;44177;43.356;27.672;2022-10-17T05:35:20;99645.50;;;16.22;46.74
58373;BME280;44177;43.356;27.672;2022-10-17T05:37:46;99650.59;;;16.20;46.96
58373;BME280;44177;43.356;27.672;2022-10-17T05:40:12;99648.63;;;16.20;47.03
58373;BME280;44177;43.356;27.672;2022-10-17T05:42:37;99647.84;;;16.20;47.03
58373;BME280;44177;43.356;27.672;2022-10-17T05:45:03;99648.16;;;16.18;46.92
58373;BME280;44177;43.356;27.672;2022-10-17T05:47:29;99655.63;;;16.18;46.70
58373;BME280;44177;43.356;27.672;2022-10-17T05:49:54;99654.50;;;16.19;46.72
58373;BME280;44177;43.356;27.672;2022-10-17T05:52:20;99648.06;;;16.15;46.88
58373;BME280;44177;43.356;27.672;2022-10-17T05:54:45;99650.13;;;16.18;46.98
58373;BME280;44177;43.356;27.672;2022-10-17T05:57:10;99645.78;;;16.17;46.80
58373;BME280;44177;43.356;27.672;2022-10-17T05:59:36;99656.78;;;16.17;46.70
58373;BME280;44177;43.356;27.672;2022-10-17T06:02:01;99646.03;;;16.12;46.88
58373;BME280;44177;43.356;27.672;2022-10-17T06:04:27;99649.25;;;16.14;47.07
58373;BME280;44177;43.356;27.672;2022-10-17T06:06:53;99659.06;;;16.15;46.77
58373;BME280;44177;43.356;27.672;2022-10-17T06:09:21;99664.94;;;16.13;46.96
58373;BME280;44177;43.356;27.672;2022-10-17T06:11:46;99671.25;;;16.14;47.18
58373;BME280;44177;43.356;27.672;2022-10-17T06:14:12;99682.28;;;16.14;47.05
58373;BME280;44177;43.356;27.672;2022-10-17T06:16:37;99679.53;;;16.14;47.15
58373;BME280;44177;43.356;27.672;2022-10-17T06:19:03;99679.53;;;16.14;47.26
58373;BME280;44177;43.356;27.672;2022-10-17T06:21:28;99683.84;;;16.15;46.93
58373;BME280;44177;43.356;27.672;2022-10-17T06:23:53;99684.66;;;16.15;46.80
58373;BME280;44177;43.356;27.672;2022-10-17T06:26:19;99686.59;;;16.15;46.86
58373;BME280;44177;43.356;27.672;2022-10-17T06:28:45;99694.06;;;16.14;47.10
58373;BME280;44177;43.356;27.672;2022-10-17T06:31:14;99693.28;;;16.14;47.25
58373;BME280;44177;43.356;27.672;2022-10-17T06:33:40;99701.53;;;16.14;46.86
58373;BME280;44177;43.356;27.672;2022-10-17T06:36:07;99700.38;;;16.15;46.82
58373;BME280;44177;43.356;27.672;2022-10-17T06:38:33;99698.78;;;16.14;47.14
58373;BME280;44177;43.356;27.672;2022-10-17T06:41:07;99707.47;;;16.16;46.69
58373;BME280;44177;43.356;27.672;2022-10-17T06:43:37;99705.88;;;16.15;46.89
58373;BME280;44177;43.356;27.672;2022-10-17T06:46:03;99704.72;;;16.16;46.87
58373;BME280;44177;43.356;27.672;2022-10-17T06:48:29;99711.06;;;16.16;47.03
58373;BME280;44177;43.356;27.672;2022-10-17T06:51:02;99710.69;;;16.18;47.13
58373;BME280;44177;43.356;27.672;2022-10-17T06:53:30;99705.97;;;16.18;46.97
58373;BME280;44177;43.356;27.672;2022-10-17T06:55:56;99711.47;;;16.18;46.80
58373;BME280;44177;43.356;27.672;2022-10-17T06:58:27;99715.06;;;16.19;46.99
58373;BME280;44177;43.356;27.672;2022-10-17T07:03:25;99708.84;;;16.22;46.96
58373;BME280;44177;43.356;27.672;2022-10-17T07:05:51;99715.94;;;16.23;46.77
58373;BME280;44177;43.356;27.672;2022-10-17T07:08:17;99711.59;;;16.22;46.85
58373;BME280;44177;43.356;27.672;2022-10-17T07:10:42;99710.13;;;16.24;46.63
58373;BME280;44177;43.356;27.672;2022-10-17T07:13:08;99711.72;;;16.25;46.81
58373;BME280;44177;43.356;27.672;2022-10-17T07:15:33;99714.13;;;16.27;46.86
58373;BME280;44177;43.356;27.672;2022-10-17T07:17:59;99712.97;;;16.28;46.67
58373;BME280;44177;43.356;27.672;2022-10-17T07:20:24;99711.84;;;16.29;46.71
58373;BME280;44177;43.356;27.672;2022-10-17T07:22:50;99712.25;;;16.31;46.86
58373;BME280;44177;43.356;27.672;2022-10-17T07:25:15;99702.41;;;16.30;46.69
58373;BME280;44177;43.356;27.672;2022-10-17T07:27:41;99701.25;;;16.31;47.04
58373;BME280;44177;43.356;27.672;2022-10-17T07:30:07;99707.22;;;16.33;46.93
58373;BME280;44177;43.356;27.672;2022-10-17T07:32:32;99709.97;;;16.33;46.91
58373;BME280;44177;43.356;27.672;2022-10-17T07:34:58;99711.22;;;16.36;46.68
58373;BME280;44177;43.356;27.672;2022-10-17T07:37:23;99710.53;;;16.39;46.68
58373;BME280;44177;43.356;27.672;2022-10-17T07:39:49;99705.13;;;16.42;46.49
58373;BME280;44177;43.356;27.672;2022-10-17T07:42:14;99706.03;;;16.47;46.43
58373;BME280;44177;43.356;27.672;2022-10-17T07:44:39;99703.72;;;16.49;46.17
58373;BME280;44177;43.356;27.672;2022-10-17T07:47:05;99711.63;;;16.50;46.37
58373;BME280;44177;43.356;27.672;2022-10-17T07:49:31;99703.81;;;16.52;46.26
58373;BME280;44177;43.356;27.672;2022-10-17T07:51:56;99711.72;;;16.54;46.42
58373;BME280;44177;43.356;27.672;2022-10-17T07:54:21;99704.75;;;16.56;46.20
58373;BME280;44177;43.356;27.672;2022-10-17T07:56:47;99698.88;;;16.58;46.24
58373;BME280;44177;43.356;27.672;2022-10-17T07:59:16;99696.81;;;16.55;46.30
58373;BME280;44177;43.356;27.672;2022-10-17T08:01:42;99702.53;;;16.62;46.22
58373;BME280;44177;43.356;27.672;2022-10-17T08:04:07;99708.50;;;16.64;46.34
58373;BME280;44177;43.356;27.672;2022-10-17T08:06:33;99704.59;;;16.65;46.29
58373;BME280;44177;43.356;27.672;2022-10-17T08:08:58;99702.63;;;16.66;46.02
58373;BME280;44177;43.356;27.672;2022-10-17T08:11:25;99699.97;;;16.69;46.40
58373;BME280;44177;43.356;27.672;2022-10-17T08:13:51;99704.31;;;16.70;46.13
58373;BME280;44177;43.356;27.672;2022-10-17T08:16:16;99700.88;;;16.73;45.96
58373;BME280;44177;43.356;27.672;2022-10-17T08:18:42;99699.72;;;16.74;46.02
58373;BME280;44177;43.356;27.672;2022-10-17T08:21:09;99704.88;;;16.76;46.04
58373;BME280;44177;43.356;27.672;2022-10-17T08:23:35;99700.63;;;16.79;45.92
58373;BME280;44177;43.356;27.672;2022-10-17T08:26:03;99712.09;;;16.81;45.82
58373;BME280;44177;43.356;27.672;2022-10-17T08:28:29;99706.94;;;16.79;45.95
58373;BME280;44177;43.356;27.672;2022-10-17T08:31:15;99706.31;;;16.86;46.11
58373;BME280;44177;43.356;27.672;2022-10-17T08:33:43;99707.03;;;16.83;45.98
58373;BME280;44177;43.356;27.672;2022-10-17T08:36:11;99713.09;;;16.88;45.71
58373;BME280;44177;43.356;27.672;2022-10-17T08:38:37;99720.66;;;16.92;45.75
58373;BME280;44177;43.356;27.672;2022-10-17T08:41:10;99726.66;;;16.94;45.71
58373;BME280;44177;43.356;27.672;2022-10-17T08:46:12;99714.56;;;16.98;45.86
58373;BME280;44177;43.356;27.672;2022-10-17T08:48:41;99716.19;;;16.99;45.56
58373;BME280;44177;43.356;27.672;2022-10-17T08:51:27;99718.56;;;17.01;45.51
58373;BME280;44177;43.356;27.672;2022-10-17T08:54:00;99722.66;;;17.07;45.33
58373;BME280;44177;43.356;27.672;2022-10-17T08:56:33;99722.66;;;17.07;45.32
58373;BME280;44177;43.356;27.672;2022-10-17T08:59:06;99719.69;;;17.12;45.45
58373;BME280;44177;43.356;27.672;2022-10-17T09:02:33;99717.72;;;17.13;45.30
58373;BME280;44177;43.356;27.672;2022-10-17T09:07:49;99715.03;;;17.16;45.24
58373;BME280;44177;43.356;27.672;2022-10-17T09:10:23;99720.56;;;17.16;45.36
58373;BME280;44177;43.356;27.672;2022-10-17T09:18:21;99725.38;;;17.19;45.54
58373;BME280;44177;43.356;27.672;2022-10-17T09:20:59;99721.44;;;17.20;45.43
58373;BME280;44177;43.356;27.672;2022-10-17T09:23:53;99727.78;;;17.21;45.33
58373;BME280;44177;43.356;27.672;2022-10-17T09:26:20;99731.69;;;17.20;45.28
58373;BME280;44177;43.356;27.672;2022-10-17T09:28:52;99722.25;;;17.21;45.20
58373;BME280;44177;43.356;27.672;2022-10-17T09:31:39;99716.03;;;17.24;45.00
58373;BME280;44177;43.356;27.672;2022-10-17T09:34:09;99716.84;;;17.25;45.11
58373;BME280;44177;43.356;27.672;2022-10-17T09:36:39;99717.19;;;17.23;45.30
58373;BME280;44177;43.356;27.672;2022-10-17T09:39:12;99708.19;;;17.26;45.02
58373;BME280;44177;43.356;27.672;2022-10-17T09:41:42;99701.16;;;17.29;44.95
58373;BME280;44177;43.356;27.672;2022-10-17T09:44:30;99703.59;;;17.30;45.32
58373;BME280;44177;43.356;27.672;2022-10-17T09:49:39;99709.44;;;17.29;44.92
58373;BME280;44177;43.356;27.672;2022-10-17T09:52:11;99703.59;;;17.30;44.80
58373;BME280;44177;43.356;27.672;2022-10-17T09:54:44;99698.84;;;17.31;45.00
58373;BME280;44177;43.356;27.672;2022-10-17T09:57:13;99698.50;;;17.32;45.11
58373;BME280;44177;43.356;27.672;2022-10-17T10:02:17;99698.50;;;17.32;44.97
58373;BME280;44177;43.356;27.672;2022-10-17T10:07:18;99705.28;;;17.35;45.14
58373;BME280;44177;43.356;27.672;2022-10-17T10:09:46;99694.25;;;17.35;44.72
58373;BME280;44177;43.356;27.672;2022-10-17T10:12:27;99696.66;;;17.36;44.88
58373;BME280;44177;43.356;27.672;2022-10-17T10:14:53;99705.38;;;17.39;44.83
58373;BME280;44177;43.356;27.672;2022-10-17T10:20:28;99696.03;;;17.43;44.98
58373;BME280;44177;43.356;27.672;2022-10-17T10:25:33;99698.44;;;17.45;44.80
58373;BME280;44177;43.356;27.672;2022-10-17T10:27:59;99695.66;;;17.45;44.60
58373;BME280;44177;43.356;27.672;2022-10-17T10:30:28;99698.44;;;17.45;44.74
58373;BME280;44177;43.356;27.672;2022-10-17T10:32:55;99690.59;;;17.47;44.58
58373;BME280;44177;43.356;27.672;2022-10-17T10:35:31;99694.22;;;17.51;44.60
58373;BME280;44177;43.356;27.672;2022-10-17T10:37:57;99687.09;;;17.50;44.46
58373;BME280;44177;43.356;27.672;2022-10-17T10:40:32;99676.34;;;17.45;44.45
58373;BME280;44177;43.356;27.672;2022-10-17T10:43:02;99677.69;;;17.51;44.73
58373;BME280;44177;43.356;27.672;2022-10-17T10:45:40;99675.66;;;17.48;44.72
58373;BME280;44177;43.356;27.672;2022-10-17T10:50:58;99679.75;;;17.54;44.48
58373;BME280;44177;43.356;27.672;2022-10-17T10:56:11;99673.50;;;17.57;44.73
58373;BME280;44177;43.356;27.672;2022-10-17T11:06:54;99678.13;;;17.53;44.72
58373;BME280;44177;43.356;27.672;2022-10-17T11:09:47;99668.69;;;17.54;44.84
58373;BME280;44177;43.356;27.672;2022-10-17T11:12:30;99662.66;;;17.48;44.37
58373;BME280;44177;43.356;27.672;2022-10-17T11:15:12;99669.84;;;17.53;44.82
58373;BME280;44177;43.356;27.672;2022-10-17T11:17:47;99661.56;;;17.53;44.46
58373;BME280;44177;43.356;27.672;2022-10-17T11:20:31;99661.56;;;17.53;44.66
58373;BME280;44177;43.356;27.672;2022-10-17T11:25:58;99660.44;;;17.54;44.51
58373;BME280;44177;43.356;27.672;2022-10-17T11:28:28;99656.50;;;17.55;44.54
58373;BME280;44177;43.356;27.672;2022-10-17T11:31:03;99641.81;;;17.51;44.65
58373;BME280;44177;43.356;27.672;2022-10-17T11:33:56;99661.28;;;17.58;44.57
58373;BME280;44177;43.356;27.672;2022-10-17T11:36:27;99648.66;;;17.57;44.44
58373;BME280;44177;43.356;27.672;2022-10-17T11:39:00;99656.22;;;17.60;44.69
58373;BME280;44177;43.356;27.672;2022-10-17T11:41:37;99654.25;;;17.61;44.49
58373;BME280;44177;43.356;27.672;2022-10-17T11:44:43;99658.63;;;17.62;44.32
58373;BME280;44177;43.356;27.672;2022-10-17T11:47:33;99653.91;;;17.62;44.26
58373;BME280;44177;43.356;27.672;2022-10-17T11:50:26;99653.91;;;17.62;44.50
58373;BME280;44177;43.356;27.672;2022-10-17T11:52:59;99653.91;;;17.62;44.25
58373;BME280;44177;43.356;27.672;2022-10-17T11:55:27;99649.56;;;17.61;44.22
58373;BME280;44177;43.356;27.672;2022-10-17T12:00:51;99655.53;;;17.63;44.69
58373;BME280;44177;43.356;27.672;2022-10-17T12:06:36;99647.59;;;17.62;44.52
58373;BME280;44177;43.356;27.672;2022-10-17T12:08:58;99639.59;;;17.57;44.64
58373;BME280;44177;43.356;27.672;2022-10-17T12:11:39;99649.91;;;17.60;44.37
58373;BME280;44177;43.356;27.672;2022-10-17T12:14:41;99641.97;;;17.58;44.49
58373;BME280;44177;43.356;27.672;2022-10-17T12:19:52;99644.75;;;17.58;44.50
58373;BME280;44177;43.356;27.672;2022-10-17T12:22:24;99641.97;;;17.58;44.81
58373;BME280;44177;43.356;27.672;2022-10-17T12:24:53;99640.38;;;17.57;44.45
58373;BME280;44177;43.356;27.672;2022-10-17T12:27:36;99639.59;;;17.57;44.83
58373;BME280;44177;43.356;27.672;2022-10-17T12:32:31;99642.25;;;17.53;44.65
58373;BME280;44177;43.356;27.672;2022-10-17T12:34:57;99659.28;;;17.55;44.58
58373;BME280;44177;43.356;27.672;2022-10-17T12:48:28;99643.88;;;17.54;44.54
58373;BME280;44177;43.356;27.672;2022-10-17T12:51:15;99647.41;;;17.55;44.72
58373;BME280;44177;43.356;27.672;2022-10-17T12:54:13;99653.75;;;17.55;44.64
58373;BME280;44177;43.356;27.672;2022-10-17T12:56:46;99652.94;;;17.55;44.70
58373;BME280;44177;43.356;27.672;2022-10-17T13:01:39;99655.63;;;17.51;44.48
58373;BME280;44177;43.356;27.672;2022-10-17T13:04:08;99645.38;;;17.51;44.76
58373;BME280;44177;43.356;27.672;2022-10-17T13:06:38;99648.94;;;17.52;44.60
58373;BME280;44177;43.356;27.672;2022-10-17T13:09:17;99649.31;;;17.50;44.83
58373;BME280;44177;43.356;27.672;2022-10-17T13:11:45;99652.84;;;17.51;44.69
58373;BME280;44177;43.356;27.672;2022-10-17T13:14:15;99643.78;;;17.50;44.49
58373;BME280;44177;43.356;27.672;2022-10-17T13:17:25;99654.00;;;17.50;44.94
58373;BME280;44177;43.356;27.672;2022-10-17T13:19:52;99657.91;;;17.49;44.54
58373;BME280;44177;43.356;27.672;2022-10-17T13:22:24;99654.38;;;17.48;44.95
58373;BME280;44177;43.356;27.672;2022-10-17T13:24:51;99653.91;;;17.46;44.66
58373;BME280;44177;43.356;27.672;2022-10-17T13:27:31;99646.38;;;17.43;44.85
58373;BME280;44177;43.356;27.672;2022-10-17T13:29:59;99651.16;;;17.46;44.58
58373;BME280;44177;43.356;27.672;2022-10-17T13:32:34;99656.59;;;17.43;44.96
58373;BME280;44177;43.356;27.672;2022-10-17T13:35:11;99656.22;;;17.44;44.98
58373;BME280;44177;43.356;27.672;2022-10-17T13:37:39;99663.72;;;17.44;44.66
58373;BME280;44177;43.356;27.672;2022-10-17T13:40:06;99651.00;;;17.39;44.75
58373;BME280;44177;43.356;27.672;2022-10-17T13:42:39;99662.13;;;17.43;44.84
58373;BME280;44177;43.356;27.672;2022-10-17T13:45:28;99656.59;;;17.43;44.75
58373;BME280;44177;43.356;27.672;2022-10-17T13:47:55;99664.88;;;17.43;45.09
58373;BME280;44177;43.356;27.672;2022-10-17T13:50:26;99668.34;;;17.40;44.74
58373;BME280;44177;43.356;27.672;2022-10-17T13:53:06;99663.53;;;17.36;45.04
58373;BME280;44177;43.356;27.672;2022-10-17T13:55:32;99671.81;;;17.36;45.16
58373;BME280;44177;43.356;27.672;2022-10-17T13:58:16;99665.16;;;17.38;45.18
58373;BME280;44177;43.356;27.672;2022-10-17T14:00:43;99665.06;;;17.34;44.84
58373;BME280;44177;43.356;27.672;2022-10-17T14:03:09;99661.16;;;17.35;45.18
58373;BME280;44177;43.356;27.672;2022-10-17T14:08:35;99662.66;;;17.32;45.05
58373;BME280;44177;43.356;27.672;2022-10-17T14:11:06;99662.66;;;17.32;45.17
58373;BME280;44177;43.356;27.672;2022-10-17T14:13:37;99662.66;;;17.32;45.14
58373;BME280;44177;43.356;27.672;2022-10-17T14:16:03;99662.66;;;17.32;44.86
58373;BME280;44177;43.356;27.672;2022-10-17T14:18:32;99659.47;;;17.30;45.14
58373;BME280;44177;43.356;27.672;2022-10-17T14:20:59;99664.97;;;17.30;45.02
58373;BME280;44177;43.356;27.672;2022-10-17T14:26:16;99663.75;;;17.28;45.09
58373;BME280;44177;43.356;27.672;2022-10-17T14:28:44;99671.19;;;17.27;45.34
58373;BME280;44177;43.356;27.672;2022-10-17T14:31:23;99678.69;;;17.27;45.02
58373;BME280;44177;43.356;27.672;2022-10-17T14:33:50;99672.00;;;17.28;45.17
58373;BME280;44177;43.356;27.672;2022-10-17T14:36:18;99674.31;;;17.26;45.42
58373;BME280;44177;43.356;27.672;2022-10-17T14:38:49;99675.47;;;17.25;45.29
58373;BME280;44177;43.356;27.672;2022-10-17T14:41:27;99674.69;;;17.24;45.34
58373;BME280;44177;43.356;27.672;2022-10-17T14:43:55;99674.94;;;17.19;45.43
58373;BME280;44177;43.356;27.672;2022-10-17T14:46:21;99681.69;;;17.21;45.39
58373;BME280;44177;43.356;27.672;2022-10-17T14:48:52;99678.03;;;17.17;45.41
58373;BME280;44177;43.356;27.672;2022-10-17T14:51:19;99682.03;;;17.20;45.53